Scroll down
FLIGHT INFORMATION
AirBridgeCargo

ABW2434

At Arrival Gate

KPAE
 KLAX
DATE: 2018-12-01
GATE:  -
GATE DEPARTURE: 16:09
TAKEOFF: 16:17
DATE: 2018-12-01
GATE: S3
LANDING: 18:13
GATE ARRIVAL: 18:23
FLIGHT DATA
Crew: TOM LANDRY
Speed: 494 kts Altitude: 39000 ft
Stage Length: 856 nm
Route: PAE BTG MRTEN HRMNS LMT LIN BURGL DOUIT CROWY MUPTT MDOTS GRIPR BIKNG RUNNN IRNMN SYMON BAYST JUUSE CLIFY DAHJR GADDO
Block Time: 2.2 Flight Time: 1.9
Fuel Used: 46166 LB
TRACK DATA
50000 FT1000 KT
AIRCRAFT INFORMATION
Aircraft Type: B748F
Registration: VQ-BRJ
SELCAL:  MSN/LN: 37670 / 1482
Operator: AIRBRIDGECARGO
Flights: 12 Block Time: 56.7 Flight Time: 53.5
Fuel Used: 1011744 LB
  • DEPARTURE INFORMATION
    Date: 2018-12-01
    Airport: KPAE
    Gate:  -
    Gate Departure: 16:09
    Takeoff: 16:17
    ARRIVAL INFORMATION
    Date: 2018-12-01
    Airport: KLAX
    Gate: S3
    Landing: 18:13
    Gate Arrival: 18:23
  • FLIGHT DATA
    Crew: TOM LANDRY
    Speed: 494 kts Altitude: 39000 ft
    Stage Length: 462 nm
    Route: PAE BTG MRTEN HRMNS LMT LIN BURGL DOUIT CROWY MUPTT MDOTS GRIPR BIKNG RUNNN IRNMN SYMON BAYST JUUSE CLIFY DAHJR GADDO
    Block Time: 2.2 Flight Time: 1.9
    Fuel Used: 46166 LB
  • AIRCRAFT INFORMATION
    Aircraft Type: B748F
    Registration: VQ-BRJ
    SELCAL:  MSN/LN: 37670 / 1482
    Operator: AirBridgeCargo
    Flights: 12 Block Time: 56.7 Flight Time: 53.5
    Fuel Used: 1011744 LB

DATALINK LOG | Newest first | Current as of: 2020-09-21 16:59:24
LABEL SEQUENCE CONTENT Dn/Up
QD230118:23 27.9▼ Dn
QC130018:13▼ Dn
GA4728CARGO STAND S3▲ Up
GR4640KLAX 18:13▼ Dn
2U4502KLAX 011653Z VRB04KT 10SM FEW027 FEW220 SCT280 15/06 A3001 RMK AO2 SLP161 T01500056▲ Up
2S4502KLAX▼ Dn
2U3755KLAX 011553Z VRB04KT 10SM FEW026 FEW220 SCT280 13/05 A3001 RMK AO2 SLP161 T01330050▲ Up
2S3755KLAX▼ Dn
QB163416:16▼ Dn
QA083516:08 74.1▼ Dn
2U4947KPAE 011453Z 00000KT 10SM FEW006 04/03 A2982 RMK AO2 SLP100 T00390028 51007▲ Up
2S4947KPAE▼ Dn


AIRCRAFT HISTORY
FLIGHT DATE FLIGHT NO. ORIGIN DESTINATION ROUTE BLOCK TIME FLIGHT TIME FUEL USED (LB) PILOT
2020-09-17ABW569UNKL RKSI UNKL BALUT ATREG RO LONKA NEDAG RELIK GUDMI AGANU BAPIR LUTOG KEMON PIMIT SERNA BAGAT TAYAN UH MODUN POLHO PIDOX NIKIT LUX UPSAT PAMDA DONVO AGAVO RILRO GONAV BODOL REBIT RKSI4.33.892645Zsolt Szivak
2020-09-15ABW9299UUDD UNKL UUDD WT GEKLA DAKLO SF GAMDI MAMET RP OK NAMER BOKSA INTEP SURUL NOGRI ASKAL DIFAN LIGTU LOMBI INLEB GOGTA ALUMA KUSEB MOTOG KEROM LIBMA LUKAS ABITI ML GEROS KZ KENGA TUPIM GONPA TOKMO BINBA ADONI ROTLI RANET UNKL4.74.3109888Zsolt Szivak
2019-03-02ABW301UNKL UUDD UNKL BASEL SURIP NOVRA ADMER LAMEG ADIMA LITUN ADMUR UNEKI RITNA PIGUR NALOG IDKOM ULRES ADANU UDRAL BADIK LEBMI BAPTA NETAD UNANI DINTU LANIL TESLI KUSID OSBUR MF ITINA RW UUDD4.74.391255Aaron Buchanan
2019-02-26ABW226PANC UNKL PANC FFITZ WINOR MCG SHH BABAD PEMID NISEL NEKON BEKMI BALIL POKEP RITOT RUDBA PETIV LURET KOVID GESRA NIDEN ABATA POBEN BEPSA BEMON VABIM GANPA NUPSI OTMER NALOK NIRBA OLIBA BANED DEM RUKOL ARKEP SURON KESIS ATNOR SOSNA TEMUR MOTIN GO UNKL7.67.2155514Aaron Buchanan
2019-02-24ABW223KPDX PANC KPDX TOU PRYCE BKA LAIRE JOH PANC3.63.366949Aaron Buchanan
2019-02-02ABW202KORD KPDX KORD MYKIE MONNY SMIDD FSD KD87Y KD90U KU03M JKNOX KPDX4.13.780467Aaron Buchanan
2019-01-29ABW129KDTW KORD KDTW DUNKS ALPHE PMM KORD0.90.720895-HIDDEN-
2019-01-27ABW519KATL KDTW KATL SMTTH CEMEX IBATE TONIO TAFTT JONEN DARYN SUBWY COLTZ MYMOM THATZ CRAKN CLDON MERCA NESBI RW21L1.71.433534Steven Perry
2018-12-17ABW639KLAX KATL HIIPR ADORE SHAEF PEVEE HOLTZ DOTSS WIILD BLCKD CSTWY CNERY BLH SALOM KOFFA PXR ONM CNX CDS ADM LIT GEEYY MEM HUTCC KNSAW RUSSA RUTTH JKSON MADDX GLAVN STHRN HOGGG EAGYL SHURT FOGER HITTT YURII3.93.784455Michael Roth
2018-12-08PANC KLAX TED NOWEL MDO KATCH METPA NAKBI PETPA KURTT SIMLU TAMRU VIDKU KANUA KYLLE BOXER ENI AVE4.94.7116654Michael Roth
2018-12-01ABW598KLAX PANC HIIPR EVOSE MKGEE DARRK SUMMR OLOFF RIZIN TESEA SCTRR PYE NIECE OED HQM WAPTO TOU YAZ FINGS SIMSU CAFTA YZP FRIED EEDEN SNOUT MDO5.45.2113322Michael Roth
2018-12-01ABW2434KPAE KLAX PAE BTG MRTEN HRMNS LMT LIN BURGL DOUIT CROWY MUPTT MDOTS GRIPR BIKNG RUNNN IRNMN SYMON BAYST JUUSE CLIFY DAHJR GADDO2.21.946166Tom Landry